Greystone, Colorado
Current Conditions -  °F | °C
As of 11:53 AM on Friday 31 Oct 2014 (Local Time) from KVEL Reporting Station
Clear Clear  
Wind Chill: 52°   Ceiling: Unl
Heat Index: 52°   Visibility: 10mi
Dew Point: 29°   Wind: 5mph
Humidity: 41%   Direction: 170°S
Pressure: 30.18"   Gusts: NA
Location:  40.7245°N, 108.541°W
Report Text: KVEL 311753Z AUTO 17004KT 10SM CLR 11/M02 A3018 RMK AO2 SLP206 60000 T01111017 10117 20000 58009
Loading
Personal Weather Stations






























Interactive Weather Map
Tropical Storm Tracking
New forecast layout! Learn more

10-Day Weather Forecast

Advertisements
Track Severe Weather on mobile